createdAt,value
2022-09-16T00:00:35.836Z,16.40
2022-09-16T00:03:02.961Z,16.40
2022-09-16T00:05:30.354Z,16.30
2022-09-16T00:07:57.237Z,16.30
2022-09-16T00:10:24.444Z,16.30
2022-09-16T00:12:51.472Z,16.20
2022-09-16T00:15:18.691Z,16.40
2022-09-16T00:17:45.622Z,16.40
2022-09-16T00:20:12.518Z,16.30
2022-09-16T00:22:39.449Z,16.30
2022-09-16T00:25:06.796Z,16.40
2022-09-16T00:27:33.739Z,16.30
2022-09-16T00:30:00.767Z,16.20
2022-09-16T00:32:27.656Z,16.20
2022-09-16T00:34:54.651Z,16.10
2022-09-16T00:37:21.609Z,16.10
2022-09-16T00:39:49.427Z,16.00
2022-09-16T00:42:18.314Z,16.00
2022-09-16T00:45:14.229Z,16.00
2022-09-16T00:47:47.424Z,16.00
2022-09-16T00:50:18.062Z,16.00
2022-09-16T00:52:45.719Z,16.20
2022-09-16T00:55:19.445Z,16.30
2022-09-16T00:57:47.198Z,16.30
2022-09-16T01:00:14.769Z,16.40
2022-09-16T01:02:44.082Z,16.50
2022-09-16T01:05:17.365Z,16.50
2022-09-16T01:07:52.492Z,16.50
2022-09-16T01:10:22.821Z,16.40
2022-09-16T01:13:12.757Z,16.40
2022-09-16T01:15:54.811Z,16.30
2022-09-16T01:18:53.658Z,16.20
2022-09-16T01:21:29.803Z,16.30
2022-09-16T01:24:22.437Z,16.30
2022-09-16T01:27:18.811Z,16.30
2022-09-16T01:29:48.790Z,16.30
2022-09-16T01:32:31.170Z,16.30
2022-09-16T01:35:20.215Z,16.40
2022-09-16T01:38:13.422Z,16.50
2022-09-16T01:40:49.141Z,16.50
2022-09-16T01:43:25.576Z,16.60
2022-09-16T01:46:06.662Z,16.50
2022-09-16T01:48:54.989Z,16.50
2022-09-16T01:51:28.694Z,16.40
2022-09-16T01:54:12.272Z,16.40
2022-09-16T01:56:48.173Z,16.40
2022-09-16T01:59:24.937Z,16.50
2022-09-16T02:01:54.713Z,16.60
2022-09-16T02:04:30.188Z,16.60
2022-09-16T02:06:59.459Z,16.70
2022-09-16T02:09:32.151Z,16.80
2022-09-16T02:12:05.685Z,16.80
2022-09-16T02:14:38.556Z,16.80
2022-09-16T02:17:09.028Z,16.80
2022-09-16T02:19:59.188Z,16.70
2022-09-16T02:22:31.065Z,16.60
2022-09-16T02:25:00.349Z,16.60
2022-09-16T02:27:29.146Z,16.70
2022-09-16T02:30:06.633Z,16.70
2022-09-16T02:32:39.902Z,16.60
2022-09-16T02:35:12.302Z,16.70
2022-09-16T02:37:50.614Z,16.70
2022-09-16T02:40:24.045Z,16.70
2022-09-16T02:42:51.849Z,16.70
2022-09-16T02:45:20.590Z,16.70
2022-09-16T02:48:40.010Z,16.70
2022-09-16T02:51:16.393Z,16.70
2022-09-16T02:53:50.537Z,16.80
2022-09-16T02:56:39.394Z,16.90
2022-09-16T02:59:08.116Z,16.90
2022-09-16T03:01:44.283Z,16.90
2022-09-16T03:04:14.174Z,16.90
2022-09-16T03:06:41.745Z,16.90
2022-09-16T03:09:12.442Z,16.90
2022-09-16T03:11:42.342Z,16.90
2022-09-16T03:14:37.547Z,17.00
2022-09-16T03:17:07.356Z,17.00
2022-09-16T03:19:59.582Z,16.90
2022-09-16T03:22:57.376Z,16.90
2022-09-16T03:25:57.132Z,16.90
2022-09-16T03:28:36.335Z,16.80
2022-09-16T03:31:08.680Z,16.80
2022-09-16T03:33:50.622Z,17.00
2022-09-16T03:36:33.426Z,17.00
2022-09-16T03:39:01.849Z,17.10
2022-09-16T03:41:33.993Z,17.20
2022-09-16T03:44:04.255Z,17.20
2022-09-16T03:46:32.484Z,17.20
2022-09-16T03:48:59.805Z,17.30
2022-09-16T03:51:27.172Z,17.40
2022-09-16T03:53:54.916Z,17.20
2022-09-16T03:56:24.272Z,17.30
2022-09-16T03:58:51.509Z,17.20
2022-09-16T04:01:18.691Z,17.20
2022-09-16T04:03:45.618Z,17.20
2022-09-16T04:06:12.666Z,17.30
2022-09-16T04:08:39.840Z,17.20
2022-09-16T04:11:07.401Z,17.20
2022-09-16T04:13:35.511Z,17.30
2022-09-16T04:16:05.732Z,17.40
2022-09-16T04:18:34.643Z,17.40
2022-09-16T04:21:03.483Z,17.40
2022-09-16T04:23:33.782Z,17.40
2022-09-16T04:26:02.620Z,17.40
2022-09-16T04:28:30.990Z,17.40
2022-09-16T04:31:06.468Z,17.40
2022-09-16T04:33:35.573Z,17.30
2022-09-16T04:36:17.494Z,17.30
2022-09-16T04:38:46.013Z,17.30
2022-09-16T04:41:24.654Z,17.20
2022-09-16T04:43:53.474Z,17.20
2022-09-16T04:46:20.623Z,17.20
2022-09-16T04:48:52.458Z,17.20
2022-09-16T04:51:20.369Z,17.20
2022-09-16T04:53:47.558Z,17.30
2022-09-16T04:56:15.983Z,17.20
2022-09-16T04:58:47.700Z,17.30
2022-09-16T05:01:17.367Z,17.30
2022-09-16T05:03:46.638Z,17.20
2022-09-16T05:06:21.231Z,17.20
2022-09-16T05:08:49.432Z,17.30
2022-09-16T05:11:24.292Z,17.30
2022-09-16T05:13:51.515Z,17.20
2022-09-16T05:16:20.784Z,17.20
2022-09-16T05:18:49.669Z,17.10
2022-09-16T05:21:19.218Z,17.00
2022-09-16T05:23:47.351Z,17.00
2022-09-16T05:26:26.746Z,17.00
2022-09-16T05:28:53.972Z,17.10
2022-09-16T05:31:28.975Z,17.10
2022-09-16T05:34:01.780Z,17.10
2022-09-16T05:36:32.261Z,17.10
2022-09-16T05:39:21.761Z,17.10
2022-09-16T05:41:46.837Z,17.20
2022-09-16T05:44:14.777Z,17.10
2022-09-16T05:46:41.992Z,18.20
2022-09-16T05:49:09.536Z,17.20
2022-09-16T05:51:38.574Z,17.20
2022-09-16T05:54:05.729Z,17.20
2022-09-16T05:56:32.803Z,17.30
2022-09-16T05:59:00.745Z,17.30
2022-09-16T06:01:31.202Z,17.40
2022-09-16T06:04:00.220Z,17.40
2022-09-16T06:06:30.963Z,17.50
2022-09-16T06:08:59.962Z,17.60
2022-09-16T06:11:28.421Z,17.60
2022-09-16T06:13:57.647Z,17.60
2022-09-16T06:16:28.333Z,17.60
2022-09-16T06:18:56.012Z,17.60
2022-09-16T06:21:24.058Z,17.60
2022-09-16T06:23:51.359Z,17.50
2022-09-16T06:26:21.287Z,17.60
2022-09-16T06:28:49.418Z,17.50
2022-09-16T06:31:27.161Z,17.50
2022-09-16T06:33:55.424Z,17.50
2022-09-16T06:36:32.308Z,17.50
2022-09-16T06:38:59.296Z,17.50
2022-09-16T06:41:26.212Z,17.40
2022-09-16T06:43:53.483Z,17.40
2022-09-16T06:46:28.650Z,17.40
2022-09-16T06:48:59.333Z,17.50
2022-09-16T06:51:31.603Z,17.50
2022-09-16T06:54:06.958Z,17.50
2022-09-16T06:56:36.287Z,17.40
2022-09-16T06:59:03.932Z,17.50
2022-09-16T07:01:31.843Z,17.40
2022-09-16T07:04:02.205Z,17.40
2022-09-16T07:06:51.068Z,17.60
2022-09-16T07:09:17.346Z,17.50
2022-09-16T07:11:44.269Z,17.70
2022-09-16T07:14:11.193Z,17.70
2022-09-16T07:16:38.165Z,17.70
2022-09-16T07:19:05.348Z,17.60
2022-09-16T07:21:32.711Z,17.50
2022-09-16T07:24:01.559Z,17.50
2022-09-16T07:26:31.202Z,17.40
2022-09-16T07:29:01.113Z,17.20
2022-09-16T07:31:31.086Z,17.00
2022-09-16T07:34:03.674Z,16.70
2022-09-16T07:36:36.986Z,16.60
2022-09-16T07:39:05.075Z,16.40
2022-09-16T07:41:40.770Z,16.40
2022-09-16T07:44:10.056Z,16.30
2022-09-16T07:46:37.334Z,16.10
2022-09-16T07:49:06.560Z,16.00
2022-09-16T07:51:33.838Z,16.00
2022-09-16T07:54:04.694Z,16.00
2022-09-16T07:56:34.499Z,15.90
2022-09-16T07:59:06.045Z,15.90
2022-09-16T08:01:33.388Z,16.00
2022-09-16T08:04:01.586Z,15.90
2022-09-16T08:06:30.896Z,15.90
2022-09-16T08:09:10.040Z,15.90
2022-09-16T08:11:46.808Z,15.80
2022-09-16T08:14:13.757Z,15.90
2022-09-16T08:16:40.699Z,16.00
2022-09-16T08:19:09.149Z,15.90
2022-09-16T08:21:35.957Z,15.90
2022-09-16T08:24:02.960Z,15.90
2022-09-16T08:26:29.917Z,16.10
2022-09-16T08:29:08.428Z,16.20
2022-09-16T08:31:36.820Z,16.30
2022-09-16T08:34:03.897Z,16.30
2022-09-16T08:36:33.220Z,16.30
2022-09-16T08:39:00.109Z,16.30
2022-09-16T08:42:06.529Z,16.10
2022-09-16T08:44:50.658Z,16.10
2022-09-16T08:47:48.913Z,16.30
2022-09-16T08:50:22.185Z,16.40
2022-09-16T08:52:51.385Z,16.40
2022-09-16T08:55:31.477Z,16.40
2022-09-16T08:58:22.776Z,16.50
2022-09-16T09:00:56.585Z,16.50
2022-09-16T09:03:37.775Z,16.50
2022-09-16T09:06:43.797Z,16.70
2022-09-16T09:09:32.052Z,16.80
2022-09-16T09:12:33.662Z,16.80
2022-09-16T09:15:37.873Z,16.80
2022-09-16T09:18:43.632Z,16.80
2022-09-16T09:21:27.516Z,16.80
2022-09-16T09:24:13.006Z,16.60
2022-09-16T09:26:48.648Z,16.70
2022-09-16T09:29:54.413Z,16.70
2022-09-16T09:32:48.102Z,17.00
2022-09-16T09:35:24.674Z,17.10
2022-09-16T09:38:19.798Z,17.00
2022-09-16T09:40:54.646Z,17.00
2022-09-16T09:43:43.206Z,16.90
2022-09-16T09:46:23.418Z,16.90
2022-09-16T09:49:21.593Z,17.00
2022-09-16T09:51:54.606Z,17.10
2022-09-16T09:54:35.322Z,17.20
2022-09-16T09:57:14.434Z,17.10
2022-09-16T09:59:48.578Z,17.00
2022-09-16T10:02:18.554Z,16.90
2022-09-16T10:04:46.157Z,16.90
2022-09-16T10:07:16.113Z,16.90
2022-09-16T10:09:59.222Z,16.90
2022-09-16T10:12:31.629Z,17.00
2022-09-16T10:14:59.590Z,16.80
2022-09-16T10:17:30.186Z,16.80
2022-09-16T10:20:00.774Z,16.80
2022-09-16T10:22:30.338Z,17.00
2022-09-16T10:25:00.168Z,17.40
2022-09-16T10:27:35.963Z,17.70
2022-09-16T10:33:10.861Z,17.70
2022-09-16T10:35:41.806Z,17.80
2022-09-16T10:38:12.988Z,17.90
2022-09-16T10:41:01.209Z,18.00
2022-09-16T10:43:30.649Z,18.20
2022-09-16T10:45:58.505Z,18.40
2022-09-16T10:48:29.270Z,18.40
2022-09-16T10:51:02.275Z,18.30
2022-09-16T10:53:44.008Z,18.30
2022-09-16T10:56:35.432Z,18.30
2022-09-16T10:59:10.485Z,18.00
2022-09-16T11:01:47.676Z,17.80
2022-09-16T11:04:43.914Z,17.80
2022-09-16T11:07:28.854Z,17.80
2022-09-16T11:10:20.064Z,17.70
2022-09-16T11:13:19.812Z,17.60
2022-09-16T11:16:01.072Z,17.50
2022-09-16T11:18:55.547Z,17.60
2022-09-16T11:22:03.056Z,17.60
2022-09-16T11:24:36.000Z,17.50
2022-09-16T11:27:14.018Z,17.40
2022-09-16T11:29:57.572Z,17.40
2022-09-16T11:32:49.538Z,17.40
2022-09-16T11:35:31.993Z,17.40
2022-09-16T11:38:13.872Z,17.40
2022-09-16T11:40:40.747Z,17.30
2022-09-16T11:43:40.147Z,17.30
2022-09-16T11:46:23.809Z,17.40
2022-09-16T11:49:13.762Z,17.40
2022-09-16T11:51:58.718Z,17.40
2022-09-16T11:54:47.546Z,17.40
2022-09-16T11:57:29.577Z,17.40
2022-09-16T12:00:07.033Z,17.40
2022-09-16T12:02:52.314Z,17.40
2022-09-16T12:05:29.677Z,17.40
2022-09-16T12:08:08.538Z,17.50
2022-09-16T12:10:43.422Z,17.60
2022-09-16T12:13:17.568Z,17.60
2022-09-16T12:15:58.338Z,17.50
2022-09-16T12:18:39.002Z,17.60
2022-09-16T12:21:09.089Z,17.70
2022-09-16T12:23:41.965Z,17.90
2022-09-16T12:26:33.848Z,17.90
2022-09-16T12:29:21.486Z,17.70
2022-09-16T12:32:08.871Z,17.70
2022-09-16T12:34:53.297Z,17.70
2022-09-16T12:37:33.744Z,17.60
2022-09-16T12:40:02.380Z,17.60
2022-09-16T12:42:38.132Z,17.60
2022-09-16T12:45:15.961Z,17.50
2022-09-16T12:48:20.230Z,17.50
2022-09-16T12:51:11.101Z,17.50
2022-09-16T12:54:00.620Z,17.60
2022-09-16T12:57:04.726Z,17.60
2022-09-16T12:59:47.030Z,17.60
2022-09-16T13:02:24.071Z,17.50
2022-09-16T13:04:54.821Z,17.40
2022-09-16T13:07:28.170Z,17.40
2022-09-16T13:10:19.048Z,17.30
2022-09-16T13:12:56.768Z,17.30
2022-09-16T13:15:30.535Z,17.20
2022-09-16T13:18:14.481Z,17.20
2022-09-16T13:20:47.833Z,17.10
2022-09-16T13:23:21.432Z,17.10
2022-09-16T13:26:09.434Z,17.20
2022-09-16T13:28:41.134Z,17.20
2022-09-16T13:31:17.854Z,17.20
2022-09-16T13:33:50.240Z,17.30
2022-09-16T13:36:30.922Z,17.30
2022-09-16T13:39:06.488Z,17.30
2022-09-16T13:41:37.949Z,17.20
2022-09-16T13:44:30.338Z,17.10
2022-09-16T13:47:19.237Z,17.10
2022-09-16T13:49:56.272Z,17.10
2022-09-16T13:52:36.109Z,17.20
2022-09-16T13:55:10.465Z,17.10
2022-09-16T13:58:16.917Z,17.20
2022-09-16T14:01:27.944Z,17.30
2022-09-16T14:04:15.265Z,17.30
2022-09-16T14:06:59.984Z,17.20
2022-09-16T14:09:47.245Z,17.30
2022-09-16T14:12:16.980Z,17.30
2022-09-16T14:14:47.463Z,17.40
2022-09-16T14:17:24.018Z,17.50
2022-09-16T14:19:56.238Z,17.50
2022-09-16T14:22:25.756Z,17.60
2022-09-16T14:25:05.735Z,17.50
2022-09-16T14:27:40.784Z,17.50
2022-09-16T14:30:17.228Z,17.60
2022-09-16T14:32:46.002Z,17.60
2022-09-16T14:35:24.640Z,17.60
2022-09-16T14:37:58.887Z,17.60
2022-09-16T14:40:27.263Z,17.60
2022-09-16T14:43:12.333Z,17.60
2022-09-16T14:45:47.023Z,17.60
2022-09-16T14:48:15.609Z,17.70
2022-09-16T14:50:49.211Z,17.60
2022-09-16T14:53:36.343Z,17.60
2022-09-16T14:56:05.052Z,17.60
2022-09-16T14:58:33.822Z,17.50
2022-09-16T15:01:12.499Z,17.40
2022-09-16T15:03:53.688Z,17.30
2022-09-16T15:06:28.973Z,17.20
2022-09-16T15:09:03.149Z,17.20
2022-09-16T15:11:50.230Z,17.20
2022-09-16T15:14:18.711Z,17.30
2022-09-16T15:17:00.762Z,17.30
2022-09-16T15:19:35.374Z,17.40
2022-09-16T15:22:04.072Z,17.50
2022-09-16T15:24:33.995Z,17.50
2022-09-16T15:27:02.521Z,17.50
2022-09-16T15:29:32.788Z,17.50
2022-09-16T15:32:42.780Z,17.50
2022-09-16T15:35:30.768Z,17.50
2022-09-16T15:37:58.051Z,17.50
2022-09-16T15:40:28.058Z,17.50
2022-09-16T15:43:27.903Z,17.50
2022-09-16T15:46:03.298Z,17.50
2022-09-16T15:48:36.369Z,17.30
2022-09-16T15:51:10.620Z,17.20
2022-09-16T15:53:45.686Z,17.20
2022-09-16T15:56:18.468Z,17.20
2022-09-16T15:58:50.938Z,17.10
2022-09-16T16:01:33.283Z,17.20
2022-09-16T16:04:02.400Z,17.10
2022-09-16T16:06:49.777Z,17.20
2022-09-16T16:09:28.529Z,17.20
2022-09-16T16:12:05.272Z,17.20
2022-09-16T16:14:33.373Z,17.10
2022-09-16T16:17:13.842Z,17.10
2022-09-16T16:19:43.641Z,17.00
2022-09-16T16:22:11.929Z,17.00
2022-09-16T16:24:39.315Z,16.90
2022-09-16T16:27:06.590Z,16.80
2022-09-16T16:29:33.417Z,16.90
2022-09-16T16:32:06.454Z,16.90
2022-09-16T16:34:38.981Z,16.90
2022-09-16T16:37:07.410Z,17.00
2022-09-16T16:39:35.198Z,17.00
2022-09-16T16:42:05.058Z,16.90
2022-09-16T16:44:32.545Z,16.90
2022-09-16T16:46:59.644Z,16.90
2022-09-16T16:49:26.813Z,16.80
2022-09-16T16:51:57.967Z,16.80
2022-09-16T16:54:26.358Z,16.70
2022-09-16T16:56:54.156Z,16.70
2022-09-16T16:59:21.848Z,16.60
2022-09-16T17:01:52.374Z,16.70
2022-09-16T17:04:19.398Z,16.70
2022-09-16T17:06:46.895Z,16.60
2022-09-16T17:09:16.055Z,16.70
2022-09-16T17:11:54.975Z,16.70
2022-09-16T17:14:24.075Z,16.70
2022-09-16T17:16:51.827Z,16.70
2022-09-16T17:19:19.577Z,16.70
2022-09-16T17:21:48.050Z,16.70
2022-09-16T17:24:15.121Z,16.70
2022-09-16T17:26:42.116Z,16.60
2022-09-16T17:29:15.460Z,16.60
2022-09-16T17:31:43.302Z,16.60
2022-09-16T17:34:13.014Z,16.40
2022-09-16T17:36:43.325Z,16.40
2022-09-16T17:39:18.875Z,16.40
2022-09-16T17:41:48.647Z,16.50
2022-09-16T17:44:16.813Z,16.50
2022-09-16T17:46:44.502Z,16.50
2022-09-16T17:49:21.230Z,16.40
2022-09-16T17:51:49.107Z,16.40
2022-09-16T17:54:16.101Z,16.40
2022-09-16T17:56:43.417Z,16.40
2022-09-16T17:59:11.763Z,16.50
2022-09-16T18:01:38.657Z,16.40
2022-09-16T18:04:05.614Z,16.30
2022-09-16T18:06:39.293Z,16.40
2022-09-16T18:09:09.407Z,16.40
2022-09-16T18:11:37.489Z,16.10
2022-09-16T18:14:06.652Z,15.80
2022-09-16T18:16:33.894Z,15.90
2022-09-16T18:19:02.360Z,15.90
2022-09-16T18:21:29.937Z,15.90
2022-09-16T18:23:58.997Z,16.00
2022-09-16T18:26:26.977Z,16.00
2022-09-16T18:29:12.614Z,16.00
2022-09-16T18:31:42.707Z,16.00
2022-09-16T18:34:09.986Z,16.00
2022-09-16T18:36:39.156Z,16.10
2022-09-16T18:39:07.571Z,16.10
2022-09-16T18:41:37.623Z,16.10
2022-09-16T18:44:07.611Z,16.10
2022-09-16T18:46:36.586Z,16.10
2022-09-16T18:49:04.730Z,16.10
2022-09-16T18:51:37.527Z,16.10
2022-09-16T18:54:18.408Z,16.00
2022-09-16T18:56:45.784Z,16.00
2022-09-16T18:59:22.432Z,16.10
2022-09-16T19:01:52.241Z,15.90
2022-09-16T19:04:22.466Z,16.00
2022-09-16T19:06:52.049Z,15.80
2022-09-16T19:09:21.535Z,15.90
2022-09-16T19:11:49.580Z,15.80
2022-09-16T19:14:16.562Z,15.80
2022-09-16T19:16:45.140Z,15.90
2022-09-16T19:19:14.719Z,15.70
2022-09-16T19:21:42.946Z,15.70
2022-09-16T19:24:18.849Z,15.70
2022-09-16T19:26:46.766Z,15.50
2022-09-16T19:29:15.673Z,15.60
2022-09-16T19:31:45.202Z,15.60
2022-09-16T19:34:13.569Z,15.60
2022-09-16T19:36:41.321Z,15.50
2022-09-16T19:39:09.557Z,15.40
2022-09-16T19:41:38.118Z,15.30
2022-09-16T19:44:08.041Z,15.30
2022-09-16T19:46:37.305Z,15.30
2022-09-16T19:49:05.619Z,15.40
2022-09-16T19:51:33.270Z,15.40
2022-09-16T19:54:01.184Z,15.30
2022-09-16T19:56:33.807Z,15.40
2022-09-16T19:59:04.239Z,15.30
2022-09-16T20:01:33.813Z,15.20
2022-09-16T20:04:02.787Z,15.20
2022-09-16T20:06:38.639Z,15.30
2022-09-16T20:09:11.480Z,15.30
2022-09-16T20:11:41.106Z,15.40
2022-09-16T20:14:16.422Z,15.20
2022-09-16T20:16:43.661Z,15.20
2022-09-16T20:19:13.389Z,15.30
2022-09-16T20:21:40.725Z,15.30
2022-09-16T20:24:13.645Z,15.40
2022-09-16T20:26:40.521Z,15.30
2022-09-16T20:29:07.490Z,15.40
2022-09-16T20:31:36.515Z,15.40
2022-09-16T20:34:04.658Z,15.40
2022-09-16T20:36:37.202Z,15.30
2022-09-16T20:39:04.965Z,15.40
2022-09-16T20:41:33.601Z,15.30
2022-09-16T20:44:00.811Z,15.30
2022-09-16T20:46:30.401Z,15.20
2022-09-16T20:48:59.628Z,15.30
2022-09-16T20:51:29.028Z,15.30
2022-09-16T20:54:07.716Z,15.30
2022-09-16T20:56:38.816Z,15.30
2022-09-16T20:59:08.232Z,15.30
2022-09-16T21:01:37.097Z,15.30
2022-09-16T21:04:06.837Z,15.30
2022-09-16T21:06:35.612Z,15.20
2022-09-16T21:09:05.444Z,15.20
2022-09-16T21:11:36.434Z,15.10
2022-09-16T21:14:09.061Z,15.10
2022-09-16T21:16:38.880Z,15.10
2022-09-16T21:19:09.785Z,15.00
2022-09-16T21:21:39.598Z,15.00
2022-09-16T21:24:07.366Z,15.10
2022-09-16T21:26:35.808Z,15.10
2022-09-16T21:29:05.334Z,15.20
2022-09-16T21:31:34.062Z,15.00
2022-09-16T21:34:03.144Z,15.00
2022-09-16T21:36:31.200Z,15.00
2022-09-16T21:38:59.239Z,15.00
2022-09-16T21:41:26.657Z,15.00
2022-09-16T21:43:58.229Z,15.00
2022-09-16T21:46:31.815Z,15.10
2022-09-16T21:49:02.104Z,15.10
2022-09-16T21:51:37.429Z,15.10
2022-09-16T21:54:07.308Z,15.00
2022-09-16T21:56:37.596Z,15.00
2022-09-16T21:59:04.768Z,15.00
2022-09-16T22:01:32.082Z,15.00
2022-09-16T22:04:01.381Z,14.90
2022-09-16T22:06:28.752Z,15.00
2022-09-16T22:08:57.597Z,15.00
2022-09-16T22:11:26.282Z,15.10
2022-09-16T22:13:54.606Z,15.00
2022-09-16T22:16:29.597Z,15.00
2022-09-16T22:18:59.230Z,15.00
2022-09-16T22:21:28.418Z,15.10
2022-09-16T22:23:55.250Z,15.00
2022-09-16T22:26:23.614Z,14.90
2022-09-16T22:28:50.922Z,15.00
2022-09-16T22:31:19.642Z,14.90
2022-09-16T22:33:48.089Z,15.00
2022-09-16T22:36:17.588Z,14.90
2022-09-16T22:38:52.868Z,15.00
2022-09-16T22:41:20.657Z,15.00
2022-09-16T22:43:49.661Z,14.90
2022-09-16T22:46:19.204Z,15.00
2022-09-16T22:48:46.800Z,15.00
2022-09-16T22:51:15.478Z,15.00
2022-09-16T22:53:43.678Z,14.90
2022-09-16T22:56:22.205Z,14.70
2022-09-16T22:58:56.241Z,14.60
2022-09-16T23:01:29.081Z,14.60
2022-09-16T23:03:59.275Z,14.40
2022-09-16T23:06:28.917Z,14.30
2022-09-16T23:08:56.841Z,14.40
2022-09-16T23:11:26.793Z,14.30
2022-09-16T23:13:54.189Z,14.20
2022-09-16T23:16:25.247Z,14.20
2022-09-16T23:18:52.974Z,14.20
2022-09-16T23:21:21.589Z,14.20
2022-09-16T23:23:53.962Z,14.40
2022-09-16T23:26:23.866Z,14.40
2022-09-16T23:28:52.874Z,14.40
2022-09-16T23:31:22.066Z,14.40
2022-09-16T23:33:49.077Z,14.40
2022-09-16T23:36:17.826Z,14.40
2022-09-16T23:38:45.948Z,14.40
2022-09-16T23:41:16.331Z,14.30
2022-09-16T23:43:44.005Z,14.20
2022-09-16T23:46:14.178Z,14.20
2022-09-16T23:48:43.141Z,14.10
2022-09-16T23:51:10.497Z,14.10
2022-09-16T23:53:38.186Z,14.00
2022-09-16T23:56:10.129Z,14.00
2022-09-16T23:58:37.293Z,13.90
